createdAt,value
2017-02-15T00:00:11.906Z,0
2017-02-15T00:00:52.540Z,0
2017-02-15T00:01:33.201Z,0
2017-02-15T00:02:13.860Z,0
2017-02-15T00:02:54.515Z,0
2017-02-15T00:03:35.183Z,0
2017-02-15T00:04:15.799Z,0
2017-02-15T00:04:56.459Z,0
2017-02-15T00:05:37.134Z,0
2017-02-15T00:06:17.768Z,0
2017-02-15T00:06:58.422Z,0
2017-02-15T00:07:39.071Z,0
2017-02-15T00:08:19.722Z,0
2017-02-15T00:09:00.388Z,0
2017-02-15T00:09:41.042Z,0
2017-02-15T00:10:21.694Z,0
2017-02-15T00:11:02.348Z,0
2017-02-15T00:11:43.000Z,0
2017-02-15T00:12:23.653Z,0
2017-02-15T00:13:04.295Z,0
2017-02-15T00:13:44.957Z,0
2017-02-15T00:14:25.598Z,0
2017-02-15T00:15:06.264Z,0
2017-02-15T00:15:46.921Z,0
2017-02-15T00:16:27.487Z,0
2017-02-15T00:17:08.120Z,0
2017-02-15T00:17:48.774Z,0
2017-02-15T00:18:29.359Z,0
2017-02-15T00:19:09.983Z,0
2017-02-15T00:19:50.650Z,0
2017-02-15T00:20:31.219Z,0
2017-02-15T00:21:11.838Z,0
2017-02-15T00:21:52.490Z,0
2017-02-15T00:22:33.151Z,0
2017-02-15T00:23:13.803Z,0
2017-02-15T00:23:54.445Z,0
2017-02-15T00:24:35.085Z,0
2017-02-15T00:25:15.770Z,0
2017-02-15T00:25:56.390Z,0
2017-02-15T00:26:37.063Z,0
2017-02-15T00:27:17.621Z,0
2017-02-15T00:27:58.263Z,0
2017-02-15T00:28:38.909Z,0
2017-02-15T00:29:19.476Z,0
2017-02-15T00:30:00.112Z,0
2017-02-15T00:30:40.773Z,0
2017-02-15T00:31:21.332Z,0
2017-02-15T00:32:01.962Z,0
2017-02-15T00:32:42.627Z,0
2017-02-15T00:33:23.183Z,0
2017-02-15T00:34:03.824Z,0
2017-02-15T00:34:44.477Z,0
2017-02-15T00:35:25.040Z,0
2017-02-15T00:36:05.669Z,0
2017-02-15T00:36:46.352Z,0
2017-02-15T00:37:26.996Z,0
2017-02-15T00:38:07.651Z,0
2017-02-15T00:38:48.303Z,0
2017-02-15T00:39:30.898Z,0
2017-02-15T00:40:11.545Z,0
2017-02-15T00:40:52.195Z,0
2017-02-15T00:41:32.849Z,0
2017-02-15T00:42:13.518Z,0
2017-02-15T00:42:54.165Z,0
2017-02-15T00:43:34.810Z,0
2017-02-15T00:44:15.487Z,0
2017-02-15T00:44:56.124Z,0
2017-02-15T00:45:36.870Z,0
2017-02-15T00:46:17.512Z,0
2017-02-15T00:46:58.186Z,0
2017-02-15T00:47:38.834Z,0
2017-02-15T00:48:19.491Z,0
2017-02-15T00:49:00.140Z,0
2017-02-15T00:49:40.784Z,0
2017-02-15T00:50:21.455Z,0
2017-02-15T00:51:02.102Z,0
2017-02-15T00:51:42.760Z,0
2017-02-15T00:52:23.409Z,0
2017-02-15T00:53:04.062Z,0
2017-02-15T00:53:44.710Z,0
2017-02-15T00:54:25.370Z,0
2017-02-15T00:55:06.010Z,0
2017-02-15T00:55:46.667Z,0
2017-02-15T00:56:27.220Z,0
2017-02-15T00:57:07.878Z,0
2017-02-15T00:57:48.516Z,0
2017-02-15T00:58:29.088Z,0
2017-02-15T00:59:09.731Z,0
2017-02-15T00:59:50.374Z,0
2017-02-15T01:00:30.958Z,0
2017-02-15T01:01:11.588Z,0
2017-02-15T01:01:52.243Z,0
2017-02-15T01:02:32.892Z,0
2017-02-15T01:03:13.552Z,0
2017-02-15T01:03:54.186Z,0
2017-02-15T01:04:34.854Z,0
2017-02-15T01:05:15.501Z,0
2017-02-15T01:05:56.161Z,0
2017-02-15T01:06:36.817Z,0
2017-02-15T01:07:17.452Z,0
2017-02-15T01:07:58.114Z,0
2017-02-15T01:08:38.767Z,0
2017-02-15T01:09:19.425Z,0
2017-02-15T01:10:00.077Z,0
2017-02-15T01:10:40.753Z,0
2017-02-15T01:11:21.375Z,0
2017-02-15T01:12:02.030Z,0
2017-02-15T01:12:42.688Z,0
2017-02-15T01:13:23.339Z,0
2017-02-15T01:14:03.985Z,0
2017-02-15T01:14:45.560Z,0
2017-02-15T01:15:26.123Z,0
2017-02-15T01:16:06.758Z,0
2017-02-15T01:16:47.422Z,0
2017-02-15T01:17:28.015Z,0
2017-02-15T01:18:08.571Z,0
2017-02-15T01:18:49.217Z,0
2017-02-15T01:19:29.817Z,0
2017-02-15T01:20:10.420Z,0
2017-02-15T01:20:51.010Z,0
2017-02-15T01:21:31.695Z,0
2017-02-15T01:22:12.339Z,0
2017-02-15T01:22:52.990Z,0
2017-02-15T01:23:33.645Z,0
2017-02-15T01:24:14.297Z,0
2017-02-15T01:24:54.969Z,0
2017-02-15T01:25:35.616Z,0
2017-02-15T01:26:16.245Z,0
2017-02-15T01:26:56.906Z,0
2017-02-15T01:27:37.561Z,0
2017-02-15T01:28:18.216Z,0
2017-02-15T01:28:58.866Z,0
2017-02-15T01:29:40.544Z,0
2017-02-15T01:30:21.200Z,0
2017-02-15T01:31:01.864Z,0
2017-02-15T01:31:42.489Z,0
2017-02-15T01:32:23.156Z,0
2017-02-15T01:33:03.809Z,0
2017-02-15T01:33:44.463Z,0
2017-02-15T01:34:25.127Z,0
2017-02-15T01:35:05.762Z,0
2017-02-15T01:35:46.420Z,0
2017-02-15T01:36:26.995Z,0
2017-02-15T01:37:07.637Z,0
2017-02-15T01:37:48.281Z,0
2017-02-15T01:38:28.851Z,0
2017-02-15T01:39:09.579Z,0
2017-02-15T01:39:50.230Z,0
2017-02-15T01:40:30.803Z,0
2017-02-15T01:41:11.436Z,0
2017-02-15T01:41:52.090Z,0
2017-02-15T01:42:32.735Z,0
2017-02-15T01:43:13.393Z,0
2017-02-15T01:43:54.037Z,0
2017-02-15T01:44:34.700Z,0
2017-02-15T01:45:15.354Z,0
2017-02-15T01:45:57.029Z,0
2017-02-15T01:46:37.674Z,0
2017-02-15T01:47:18.339Z,0
2017-02-15T01:47:58.995Z,0
2017-02-15T01:48:39.637Z,0
2017-02-15T01:49:20.295Z,0
2017-02-15T01:50:00.950Z,0
2017-02-15T01:50:41.608Z,0
2017-02-15T01:51:22.259Z,0
2017-02-15T01:52:02.844Z,0
2017-02-15T01:52:43.409Z,0
2017-02-15T01:53:24.005Z,0
2017-02-15T01:54:04.664Z,0
2017-02-15T01:54:45.254Z,0
2017-02-15T01:55:25.835Z,0
2017-02-15T01:56:06.424Z,0
2017-02-15T01:56:47.066Z,0
2017-02-15T01:57:27.659Z,0
2017-02-15T01:58:08.225Z,0
2017-02-15T01:58:48.828Z,0
2017-02-15T01:59:29.457Z,0
2017-02-15T02:00:10.067Z,0
2017-02-15T02:00:50.603Z,0
2017-02-15T02:01:31.244Z,0
2017-02-15T02:02:11.880Z,0
2017-02-15T02:02:52.469Z,0
2017-02-15T02:03:33.053Z,0
2017-02-15T02:04:13.737Z,0
2017-02-15T02:04:54.392Z,0
2017-02-15T02:05:34.978Z,0
2017-02-15T02:06:15.546Z,0
2017-02-15T02:06:56.145Z,0
2017-02-15T02:07:36.721Z,0
2017-02-15T02:08:17.349Z,0
2017-02-15T02:08:58.004Z,0
2017-02-15T02:09:38.554Z,0
2017-02-15T02:10:19.197Z,0
2017-02-15T02:10:59.861Z,0
2017-02-15T02:11:40.435Z,0
2017-02-15T02:12:21.059Z,0
2017-02-15T02:13:01.711Z,0
2017-02-15T02:13:42.371Z,0
2017-02-15T02:14:23.002Z,0
2017-02-15T02:15:03.671Z,0
2017-02-15T02:15:44.308Z,0
2017-02-15T02:16:24.983Z,0
2017-02-15T02:17:05.630Z,0
2017-02-15T02:17:46.222Z,0
2017-02-15T02:18:26.791Z,0
2017-02-15T02:19:07.482Z,0
2017-02-15T02:19:48.142Z,0
2017-02-15T02:20:28.804Z,0
2017-02-15T02:21:09.381Z,0
2017-02-15T02:21:50.036Z,0
2017-02-15T02:22:30.688Z,0
2017-02-15T02:23:11.338Z,0
2017-02-15T02:23:51.993Z,0
2017-02-15T02:24:32.643Z,0
2017-02-15T02:25:13.300Z,0
2017-02-15T02:25:53.953Z,0
2017-02-15T02:26:34.552Z,0
2017-02-15T02:27:15.214Z,0
2017-02-15T02:27:55.883Z,0
2017-02-15T02:28:36.564Z,0
2017-02-15T02:29:17.125Z,0
2017-02-15T02:29:57.717Z,0
2017-02-15T02:30:38.380Z,0
2017-02-15T02:31:18.965Z,0
2017-02-15T02:31:59.528Z,0
2017-02-15T02:32:40.133Z,0
2017-02-15T02:33:20.790Z,0
2017-02-15T02:34:01.383Z,0
2017-02-15T02:34:41.941Z,0
2017-02-15T02:35:22.546Z,0
2017-02-15T02:36:03.181Z,0
2017-02-15T02:36:43.779Z,0
2017-02-15T02:37:24.344Z,0
2017-02-15T02:38:04.946Z,0
2017-02-15T02:38:45.597Z,0
2017-02-15T02:39:26.190Z,0
2017-02-15T02:40:06.767Z,0
2017-02-15T02:40:47.341Z,0
2017-02-15T02:41:28.008Z,0
2017-02-15T02:42:08.645Z,0
2017-02-15T02:42:49.160Z,0
2017-02-15T02:43:29.755Z,0
2017-02-15T02:44:10.412Z,0
2017-02-15T02:44:51.010Z,0
2017-02-15T02:45:31.568Z,0
2017-02-15T02:46:12.177Z,0
2017-02-15T02:46:52.822Z,0
2017-02-15T02:47:33.423Z,0
2017-02-15T02:48:14.074Z,0
2017-02-15T02:48:54.723Z,0
2017-02-15T02:49:35.432Z,0
2017-02-15T02:50:16.037Z,0
2017-02-15T02:50:56.682Z,0
2017-02-15T02:51:37.359Z,0
2017-02-15T02:52:18.009Z,0
2017-02-15T02:52:58.665Z,0
2017-02-15T02:53:39.311Z,0
2017-02-15T02:54:19.961Z,0
2017-02-15T02:55:00.601Z,0
2017-02-15T02:55:41.273Z,0
2017-02-15T02:56:21.914Z,0
2017-02-15T02:57:02.614Z,0
2017-02-15T02:57:43.179Z,0
2017-02-15T02:58:23.760Z,0
2017-02-15T02:59:04.439Z,0
2017-02-15T02:59:45.117Z,0
2017-02-15T03:00:25.699Z,0
2017-02-15T03:01:07.294Z,0
2017-02-15T03:01:47.945Z,0
2017-02-15T03:02:28.494Z,0
2017-02-15T03:03:09.157Z,0
2017-02-15T03:03:49.829Z,0
2017-02-15T03:04:30.402Z,0
2017-02-15T03:05:11.006Z,0
2017-02-15T03:05:51.660Z,0
2017-02-15T03:06:32.209Z,0
2017-02-15T03:07:12.861Z,0
2017-02-15T03:07:53.516Z,0
2017-02-15T03:08:34.074Z,0
2017-02-15T03:09:14.751Z,0
2017-02-15T03:09:55.374Z,0
2017-02-15T03:10:35.946Z,0
2017-02-15T03:11:16.580Z,0
2017-02-15T03:11:57.227Z,0
2017-02-15T03:12:37.827Z,0
2017-02-15T03:13:18.416Z,0
2017-02-15T03:13:58.992Z,0
2017-02-15T03:14:39.634Z,0
2017-02-15T03:15:20.246Z,0
2017-02-15T03:16:00.817Z,0
2017-02-15T03:16:41.376Z,0
2017-02-15T03:17:22.064Z,0
2017-02-15T03:18:02.719Z,0
2017-02-15T03:18:43.350Z,0
2017-02-15T03:19:24.950Z,0
2017-02-15T03:20:05.586Z,0
2017-02-15T03:20:46.248Z,0
2017-02-15T03:21:26.882Z,0
2017-02-15T03:22:07.560Z,0
2017-02-15T03:22:48.129Z,0
2017-02-15T03:23:28.748Z,0
2017-02-15T03:24:09.402Z,0
2017-02-15T03:24:49.984Z,0
2017-02-15T03:25:30.658Z,0
2017-02-15T03:26:11.264Z,0
2017-02-15T03:26:51.830Z,0
2017-02-15T03:27:32.453Z,0
2017-02-15T03:28:13.125Z,0
2017-02-15T03:28:53.813Z,0
2017-02-15T03:29:34.378Z,0
2017-02-15T03:30:14.966Z,0
2017-02-15T03:30:55.629Z,0
2017-02-15T03:31:36.227Z,0
2017-02-15T03:32:16.775Z,0
2017-02-15T03:32:57.409Z,0
2017-02-15T03:33:38.026Z,0
2017-02-15T03:34:18.629Z,0
2017-02-15T03:34:59.183Z,0
2017-02-15T03:35:39.788Z,0
2017-02-15T03:36:20.441Z,0
2017-02-15T03:37:01.097Z,0
2017-02-15T03:37:41.752Z,0
2017-02-15T03:38:22.406Z,0
2017-02-15T03:39:03.058Z,0
2017-02-15T03:39:43.696Z,0
2017-02-15T03:40:24.358Z,0
2017-02-15T03:41:05.000Z,0
2017-02-15T03:41:46.584Z,0
2017-02-15T03:42:27.246Z,0
2017-02-15T03:43:07.898Z,0
2017-02-15T03:43:48.549Z,0
2017-02-15T03:44:29.202Z,0
2017-02-15T03:45:09.848Z,0
2017-02-15T03:45:51.531Z,0
2017-02-15T03:46:33.206Z,0
2017-02-15T03:47:14.821Z,0
2017-02-15T03:47:55.386Z,0
2017-02-15T03:48:35.987Z,0
2017-02-15T03:49:16.633Z,0
2017-02-15T03:49:57.330Z,0
2017-02-15T03:50:37.896Z,0
2017-02-15T03:51:18.488Z,0
2017-02-15T03:51:59.146Z,0
2017-02-15T03:52:39.737Z,0
2017-02-15T03:53:20.314Z,0
2017-02-15T03:54:00.913Z,0
2017-02-15T03:54:41.549Z,0
2017-02-15T03:55:22.245Z,0
2017-02-15T03:56:02.825Z,0
2017-02-15T03:56:43.415Z,0
2017-02-15T03:57:24.055Z,0
2017-02-15T03:58:04.714Z,0
2017-02-15T03:58:45.364Z,0
2017-02-15T03:59:25.956Z,0
2017-02-15T04:00:06.616Z,0
2017-02-15T04:00:47.271Z,0
2017-02-15T04:01:27.903Z,0
2017-02-15T04:02:08.567Z,0
2017-02-15T04:02:49.224Z,0
2017-02-15T04:03:29.878Z,0
2017-02-15T04:04:10.533Z,0
2017-02-15T04:04:51.178Z,0
2017-02-15T04:05:31.831Z,0
2017-02-15T04:06:12.493Z,0
2017-02-15T04:06:53.078Z,0
2017-02-15T04:07:33.634Z,0
2017-02-15T04:08:14.235Z,0
2017-02-15T04:08:54.893Z,0
2017-02-15T04:09:35.481Z,0
2017-02-15T04:10:16.059Z,0
2017-02-15T04:10:56.643Z,0
2017-02-15T04:11:37.307Z,0
2017-02-15T04:12:18.920Z,0
2017-02-15T04:12:59.489Z,0
2017-02-15T04:13:40.081Z,0
2017-02-15T04:14:21.766Z,0
2017-02-15T04:15:02.352Z,0
2017-02-15T04:15:42.921Z,0
2017-02-15T04:16:23.517Z,0
2017-02-15T04:17:04.164Z,0
2017-02-15T04:17:44.813Z,0
2017-02-15T04:18:25.466Z,0
2017-02-15T04:19:06.117Z,0
2017-02-15T04:19:46.767Z,0
2017-02-15T04:20:27.428Z,0
2017-02-15T04:21:08.095Z,0
2017-02-15T04:21:48.746Z,0
2017-02-15T04:22:30.407Z,0
2017-02-15T04:23:11.072Z,0
2017-02-15T04:23:51.711Z,0
2017-02-15T04:24:32.368Z,0
2017-02-15T04:25:13.031Z,0
2017-02-15T04:25:53.673Z,0
2017-02-15T04:26:34.323Z,0
2017-02-15T04:27:14.899Z,0
2017-02-15T04:27:55.524Z,0
2017-02-15T04:28:36.093Z,0
2017-02-15T04:29:16.657Z,0
2017-02-15T04:29:57.293Z,0
2017-02-15T04:30:37.857Z,0
2017-02-15T04:31:18.489Z,0
2017-02-15T04:31:59.085Z,0
2017-02-15T04:32:39.684Z,0
2017-02-15T04:33:20.349Z,0
2017-02-15T04:34:01.011Z,0
2017-02-15T04:34:42.683Z,0
2017-02-15T04:35:23.336Z,0
2017-02-15T04:36:03.989Z,0
2017-02-15T04:36:44.578Z,0
2017-02-15T04:37:25.144Z,0
2017-02-15T04:38:05.728Z,0
2017-02-15T04:38:46.385Z,0
2017-02-15T04:39:26.987Z,0
2017-02-15T04:40:07.534Z,0
2017-02-15T04:40:49.215Z,0
2017-02-15T04:41:30.848Z,0
2017-02-15T04:42:11.507Z,0
2017-02-15T04:42:53.168Z,0
2017-02-15T04:43:33.839Z,0
2017-02-15T04:44:14.490Z,0
2017-02-15T04:44:55.136Z,0
2017-02-15T04:45:35.779Z,0
2017-02-15T04:46:16.429Z,0
2017-02-15T04:46:56.978Z,0
2017-02-15T04:47:37.689Z,0
2017-02-15T04:48:18.311Z,0
2017-02-15T04:48:58.954Z,0
2017-02-15T04:49:39.622Z,0
2017-02-15T04:50:20.267Z,0
2017-02-15T04:51:00.922Z,0
2017-02-15T04:51:41.562Z,0
2017-02-15T04:52:22.204Z,0
2017-02-15T04:53:03.829Z,0
2017-02-15T04:53:44.480Z,0
2017-02-15T04:54:25.135Z,0
2017-02-15T04:55:05.788Z,0
2017-02-15T04:55:46.442Z,0
2017-02-15T04:56:27.094Z,0
2017-02-15T04:57:07.666Z,0
2017-02-15T04:57:48.256Z,0
2017-02-15T04:58:28.832Z,0
2017-02-15T04:59:09.448Z,0
2017-02-15T04:59:50.116Z,0
2017-02-15T05:00:30.678Z,0
2017-02-15T05:01:11.313Z,0
2017-02-15T05:01:51.974Z,0
2017-02-15T05:02:32.627Z,0
2017-02-15T05:03:13.201Z,0
2017-02-15T05:03:53.837Z,0
2017-02-15T05:04:34.483Z,0
2017-02-15T05:05:15.134Z,0
2017-02-15T05:05:55.783Z,0
2017-02-15T05:06:36.531Z,0
2017-02-15T05:07:17.089Z,0
2017-02-15T05:07:57.762Z,0
2017-02-15T05:08:38.401Z,0
2017-02-15T05:09:19.059Z,0
2017-02-15T05:09:59.702Z,0
2017-02-15T05:10:40.366Z,0
2017-02-15T05:11:21.019Z,0
2017-02-15T05:12:01.673Z,0
2017-02-15T05:12:42.310Z,0
2017-02-15T05:13:22.971Z,0
2017-02-15T05:14:03.631Z,0
2017-02-15T05:14:44.276Z,0
2017-02-15T05:15:24.931Z,0
2017-02-15T05:16:05.592Z,0
2017-02-15T05:16:46.240Z,0
2017-02-15T05:17:26.893Z,0
2017-02-15T05:18:07.509Z,0
2017-02-15T05:18:48.128Z,0
2017-02-15T05:19:28.743Z,0
2017-02-15T05:20:09.397Z,0
2017-02-15T05:20:50.050Z,0
2017-02-15T05:21:30.691Z,0
2017-02-15T05:22:12.277Z,0
2017-02-15T05:22:52.931Z,0
2017-02-15T05:23:33.580Z,0
2017-02-15T05:24:14.234Z,0
2017-02-15T05:24:54.884Z,0
2017-02-15T05:25:35.546Z,0
2017-02-15T05:26:16.202Z,0
2017-02-15T05:26:56.855Z,0
2017-02-15T05:27:38.560Z,0
2017-02-15T05:28:19.176Z,0
2017-02-15T05:28:59.845Z,0
2017-02-15T05:29:41.512Z,0
2017-02-15T05:30:22.159Z,0
2017-02-15T05:31:02.810Z,0
2017-02-15T05:31:43.470Z,0
2017-02-15T05:32:24.044Z,0
2017-02-15T05:33:04.632Z,0
2017-02-15T05:33:45.225Z,0
2017-02-15T05:34:25.871Z,0
2017-02-15T05:35:06.522Z,0
2017-02-15T05:35:47.181Z,0
2017-02-15T05:36:27.838Z,0
2017-02-15T05:37:08.491Z,0
2017-02-15T05:37:49.142Z,0
2017-02-15T05:38:29.797Z,0
2017-02-15T05:39:10.471Z,0
2017-02-15T05:39:51.089Z,0
2017-02-15T05:40:31.755Z,0
2017-02-15T05:41:12.412Z,0
2017-02-15T05:41:53.060Z,0
2017-02-15T05:42:33.713Z,0
2017-02-15T05:43:14.366Z,0
2017-02-15T05:43:55.017Z,0
2017-02-15T05:44:35.672Z,0
2017-02-15T05:45:16.325Z,0
2017-02-15T05:45:56.984Z,0
2017-02-15T05:46:37.629Z,0
2017-02-15T05:47:18.291Z,0
2017-02-15T05:47:58.948Z,0
2017-02-15T05:48:39.757Z,0
2017-02-15T05:49:20.342Z,0
2017-02-15T05:50:00.990Z,0
2017-02-15T05:50:41.649Z,0
2017-02-15T05:51:22.306Z,0
2017-02-15T05:52:02.896Z,0
2017-02-15T05:52:43.503Z,0
2017-02-15T05:53:24.151Z,0
2017-02-15T05:54:04.726Z,0
2017-02-15T05:54:45.362Z,0
2017-02-15T05:55:26.013Z,0
2017-02-15T05:56:06.587Z,0
2017-02-15T05:56:47.207Z,0
2017-02-15T05:57:27.818Z,0
2017-02-15T05:58:08.405Z,0
2017-02-15T05:58:48.970Z,0
2017-02-15T05:59:29.575Z,0
2017-02-15T06:00:10.137Z,0
2017-02-15T06:00:51.795Z,0
2017-02-15T06:01:32.379Z,0
2017-02-15T06:02:12.939Z,0
2017-02-15T06:02:53.553Z,0
2017-02-15T06:03:34.125Z,0
2017-02-15T06:04:14.752Z,0
2017-02-15T06:04:55.403Z,0
2017-02-15T06:05:35.978Z,0
2017-02-15T06:06:16.618Z,0
2017-02-15T06:06:57.279Z,0
2017-02-15T06:07:37.913Z,0
2017-02-15T06:08:18.565Z,0
2017-02-15T06:08:59.221Z,0
2017-02-15T06:09:39.872Z,0
2017-02-15T06:10:20.526Z,0
2017-02-15T06:11:01.181Z,0
2017-02-15T06:11:41.830Z,0
2017-02-15T06:12:22.406Z,0
2017-02-15T06:13:03.474Z,0
2017-02-15T06:13:44.059Z,0
2017-02-15T06:14:24.691Z,0
2017-02-15T06:15:05.273Z,0
2017-02-15T06:15:45.951Z,0
2017-02-15T06:16:26.509Z,0
2017-02-15T06:17:07.162Z,0
2017-02-15T06:17:47.828Z,0
2017-02-15T06:18:28.475Z,0
2017-02-15T06:19:09.115Z,0
2017-02-15T06:19:49.773Z,0
2017-02-15T06:20:30.416Z,0
2017-02-15T06:21:11.107Z,0
2017-02-15T06:21:51.743Z,0
2017-02-15T06:22:32.380Z,0
2017-02-15T06:23:13.086Z,0
2017-02-15T06:23:53.655Z,0
2017-02-15T06:24:34.354Z,0
2017-02-15T06:25:14.990Z,0
2017-02-15T06:25:55.589Z,0
2017-02-15T06:26:36.162Z,0
2017-02-15T06:27:16.761Z,0
2017-02-15T06:27:57.441Z,0
2017-02-15T06:28:38.096Z,0
2017-02-15T06:29:18.747Z,0
2017-02-15T06:29:59.402Z,0
2017-02-15T06:30:40.064Z,0
2017-02-15T06:31:20.715Z,0
2017-02-15T06:32:01.285Z,0
2017-02-15T06:32:41.883Z,0
2017-02-15T06:33:22.527Z,0
2017-02-15T06:34:04.248Z,0
2017-02-15T06:34:44.800Z,0
2017-02-15T06:35:25.417Z,0
2017-02-15T06:36:06.067Z,0
2017-02-15T06:36:46.654Z,0
2017-02-15T06:37:27.299Z,0
2017-02-15T06:38:07.952Z,0
2017-02-15T06:38:48.603Z,0
2017-02-15T06:39:29.263Z,5
2017-02-15T06:40:09.912Z,5
2017-02-15T06:40:50.574Z,5
2017-02-15T06:41:31.143Z,5
2017-02-15T06:42:11.741Z,5
2017-02-15T06:42:52.394Z,5
2017-02-15T06:43:33.032Z,5
2017-02-15T06:44:13.696Z,5
2017-02-15T06:44:54.336Z,5
2017-02-15T06:45:35.002Z,5
2017-02-15T06:46:15.640Z,5
2017-02-15T06:46:56.309Z,10
2017-02-15T06:47:36.962Z,10
2017-02-15T06:48:17.534Z,10
2017-02-15T06:48:58.152Z,10
2017-02-15T06:49:38.802Z,10
2017-02-15T06:50:19.388Z,10
2017-02-15T06:51:00.019Z,10
2017-02-15T06:51:40.674Z,10
2017-02-15T06:52:21.262Z,10
2017-02-15T06:53:01.864Z,15
2017-02-15T06:53:42.535Z,15
2017-02-15T06:54:23.179Z,15
2017-02-15T06:55:03.834Z,15
2017-02-15T06:55:44.487Z,15
2017-02-15T06:56:25.142Z,15
2017-02-15T06:57:05.792Z,15
2017-02-15T06:57:46.428Z,20
2017-02-15T06:58:27.098Z,20
2017-02-15T06:59:07.749Z,20
2017-02-15T06:59:48.404Z,20
2017-02-15T07:00:29.094Z,20
2017-02-15T07:01:09.709Z,20
2017-02-15T07:01:50.549Z,20
2017-02-15T07:02:31.269Z,25
2017-02-15T07:03:12.091Z,25
2017-02-15T07:03:52.728Z,25
2017-02-15T07:04:33.419Z,25
2017-02-15T07:05:14.073Z,25
2017-02-15T07:05:54.640Z,25
2017-02-15T07:06:35.233Z,30
2017-02-15T07:07:15.886Z,30
2017-02-15T07:07:56.581Z,30
2017-02-15T07:08:37.160Z,30
2017-02-15T07:09:17.773Z,30
2017-02-15T07:09:58.345Z,30
2017-02-15T07:10:38.950Z,35
2017-02-15T07:11:20.563Z,35
2017-02-15T07:12:01.141Z,35
2017-02-15T07:12:41.729Z,35
2017-02-15T07:13:22.381Z,35
2017-02-15T07:14:03.043Z,35
2017-02-15T07:14:43.686Z,40
2017-02-15T07:15:24.346Z,40
2017-02-15T07:16:05.002Z,40
2017-02-15T07:16:45.645Z,40
2017-02-15T07:17:26.298Z,40
2017-02-15T07:18:06.948Z,40
2017-02-15T07:18:47.641Z,45
2017-02-15T07:19:28.214Z,45
2017-02-15T07:20:08.810Z,45
2017-02-15T07:20:49.461Z,45
2017-02-15T07:21:31.074Z,45
2017-02-15T07:22:11.645Z,45
2017-02-15T07:22:53.287Z,50
2017-02-15T07:23:33.915Z,50
2017-02-15T07:24:14.504Z,50
2017-02-15T07:24:55.070Z,50
2017-02-15T07:25:35.667Z,50
2017-02-15T07:26:17.245Z,50
2017-02-15T07:26:57.830Z,55
2017-02-15T07:27:38.498Z,55
2017-02-15T07:28:19.140Z,55
2017-02-15T07:28:59.793Z,55
2017-02-15T07:29:40.443Z,55
2017-02-15T07:30:21.100Z,55
2017-02-15T07:31:01.752Z,60
2017-02-15T07:31:47.120Z,60
2017-02-15T07:32:27.726Z,60
2017-02-15T07:33:08.375Z,60
2017-02-15T07:33:49.031Z,60
2017-02-15T07:34:29.682Z,60
2017-02-15T07:35:10.340Z,65
2017-02-15T07:35:50.998Z,65
2017-02-15T07:36:31.689Z,65
2017-02-15T07:37:12.295Z,65
2017-02-15T07:37:52.959Z,65
2017-02-15T07:38:33.601Z,65
2017-02-15T07:39:14.262Z,65
2017-02-15T07:39:54.914Z,70
2017-02-15T07:40:35.562Z,70
2017-02-15T07:41:16.215Z,70
2017-02-15T07:41:56.868Z,70
2017-02-15T07:42:37.524Z,70
2017-02-15T07:43:18.171Z,70
2017-02-15T07:43:58.825Z,75
2017-02-15T07:44:39.479Z,75
2017-02-15T07:45:20.130Z,75
2017-02-15T07:46:00.784Z,75
2017-02-15T07:46:41.481Z,75
2017-02-15T07:47:22.090Z,75
2017-02-15T07:48:02.759Z,75
2017-02-15T07:48:43.401Z,80
2017-02-15T07:49:24.047Z,80
2017-02-15T07:50:04.695Z,80
2017-02-15T07:50:45.348Z,80
2017-02-15T07:51:25.912Z,80
2017-02-15T07:52:06.572Z,80
2017-02-15T07:52:47.148Z,80
2017-02-15T07:53:27.706Z,80
2017-02-15T07:54:08.322Z,85
2017-02-15T07:54:51.018Z,85
2017-02-15T07:55:31.608Z,85
2017-02-15T07:56:12.160Z,85
2017-02-15T07:56:52.762Z,85
2017-02-15T07:57:33.427Z,85
2017-02-15T07:58:14.065Z,85
2017-02-15T07:58:54.722Z,90
2017-02-15T07:59:35.411Z,90
2017-02-15T08:00:16.039Z,90
2017-02-15T08:00:56.686Z,90
2017-02-15T08:01:37.327Z,90
2017-02-15T08:02:17.989Z,90
2017-02-15T08:02:59.630Z,90
2017-02-15T08:03:40.213Z,90
2017-02-15T08:04:20.878Z,90
2017-02-15T08:05:01.539Z,95
2017-02-15T08:05:42.181Z,95
2017-02-15T08:06:22.853Z,95
2017-02-15T08:07:03.472Z,95
2017-02-15T08:07:44.167Z,95
2017-02-15T08:08:24.787Z,95
2017-02-15T08:09:05.430Z,95
2017-02-15T08:09:46.090Z,95
2017-02-15T08:10:26.748Z,95
2017-02-15T08:11:07.405Z,100
2017-02-15T08:11:48.048Z,100
2017-02-15T08:12:28.709Z,100
2017-02-15T08:13:09.365Z,100
2017-02-15T08:13:51.039Z,100
2017-02-15T08:14:31.609Z,100
2017-02-15T08:15:12.254Z,100
2017-02-15T08:15:52.892Z,100
2017-02-15T08:16:33.559Z,100
2017-02-15T08:17:14.199Z,105
2017-02-15T08:17:54.844Z,105
2017-02-15T08:18:35.517Z,105
2017-02-15T08:19:16.147Z,105
2017-02-15T08:19:56.801Z,105
2017-02-15T08:20:37.458Z,105
2017-02-15T08:21:18.156Z,105
2017-02-15T08:21:58.764Z,105
2017-02-15T08:22:40.336Z,105
2017-02-15T08:23:20.992Z,110
2017-02-15T08:24:01.662Z,110
2017-02-15T08:24:42.304Z,110
2017-02-15T08:25:22.947Z,110
2017-02-15T08:26:03.605Z,115
2017-02-15T08:26:44.270Z,115
2017-02-15T08:27:24.912Z,110
2017-02-15T08:28:05.510Z,110
2017-02-15T08:28:46.078Z,110
2017-02-15T08:29:26.678Z,115
2017-02-15T08:30:07.336Z,115
2017-02-15T08:30:48.017Z,115
2017-02-15T08:31:28.584Z,115
2017-02-15T08:32:09.225Z,115
2017-02-15T08:32:49.879Z,115
2017-02-15T08:33:30.523Z,115
2017-02-15T08:34:12.095Z,115
2017-02-15T08:34:52.752Z,115
2017-02-15T08:35:33.408Z,115
2017-02-15T08:36:14.056Z,115
2017-02-15T08:36:54.708Z,120
2017-02-15T08:37:35.289Z,120
2017-02-15T08:38:15.855Z,120
2017-02-15T08:38:56.421Z,120
2017-02-15T08:39:38.092Z,120
2017-02-15T08:40:18.747Z,120
2017-02-15T08:40:59.311Z,120
2017-02-15T08:41:39.947Z,120
2017-02-15T08:42:20.603Z,120
2017-02-15T08:43:01.201Z,120
2017-02-15T08:43:41.784Z,120
2017-02-15T08:44:23.385Z,120
2017-02-15T08:45:04.040Z,120
2017-02-15T08:45:44.636Z,120
2017-02-15T08:46:25.203Z,120
2017-02-15T08:47:05.791Z,125
2017-02-15T08:47:47.367Z,125
2017-02-15T08:48:27.942Z,125
2017-02-15T08:49:08.577Z,130
2017-02-15T08:49:49.232Z,125
2017-02-15T08:50:29.880Z,125
2017-02-15T08:51:10.534Z,125
2017-02-15T08:51:55.797Z,125
2017-02-15T08:52:36.446Z,125
2017-02-15T08:53:18.014Z,125
2017-02-15T08:53:58.677Z,125
2017-02-15T08:54:39.326Z,125
2017-02-15T08:55:20.004Z,130
2017-02-15T08:56:00.629Z,130
2017-02-15T08:56:42.262Z,130
2017-02-15T08:57:22.958Z,130
2017-02-15T08:58:03.522Z,130
2017-02-15T08:58:46.769Z,130
2017-02-15T08:59:28.004Z,130
2017-02-15T09:00:08.587Z,130
2017-02-15T09:00:50.359Z,130
2017-02-15T09:01:31.073Z,130
2017-02-15T09:02:11.637Z,130
2017-02-15T09:02:52.375Z,135
2017-02-15T09:03:33.042Z,130
2017-02-15T09:04:13.622Z,130
2017-02-15T09:04:54.388Z,130
2017-02-15T09:05:35.109Z,135
2017-02-15T09:06:15.671Z,135
2017-02-15T09:06:56.406Z,135
2017-02-15T09:07:37.094Z,135
2017-02-15T09:08:17.705Z,135
2017-02-15T09:08:58.354Z,135
2017-02-15T09:09:39.021Z,135
2017-02-15T09:10:19.712Z,135
2017-02-15T09:11:00.314Z,135
2017-02-15T09:11:40.977Z,135
2017-02-15T09:12:21.552Z,135
2017-02-15T09:13:02.289Z,135
2017-02-15T09:13:42.939Z,135
2017-02-15T09:14:23.576Z,135
2017-02-15T09:15:04.240Z,135
2017-02-15T09:15:44.895Z,135
2017-02-15T09:16:25.547Z,140
2017-02-15T09:17:06.200Z,140
2017-02-15T09:17:46.774Z,140
2017-02-15T09:18:27.521Z,140
2017-02-15T09:19:08.248Z,140
2017-02-15T09:19:48.913Z,140
2017-02-15T09:20:29.567Z,140
2017-02-15T09:21:10.207Z,140
2017-02-15T09:21:50.870Z,140
2017-02-15T09:22:31.566Z,140
2017-02-15T09:23:12.142Z,150
2017-02-15T09:23:52.833Z,145
2017-02-15T09:24:33.581Z,140
2017-02-15T09:25:14.283Z,140
2017-02-15T09:25:54.846Z,140
2017-02-15T09:26:35.545Z,140
2017-02-15T09:27:16.225Z,140
2017-02-15T09:27:56.802Z,145
2017-02-15T09:28:37.440Z,145
2017-02-15T09:29:18.057Z,145
2017-02-15T09:29:58.753Z,145
2017-02-15T09:30:40.424Z,145
2017-02-15T09:31:21.122Z,145
2017-02-15T09:32:01.736Z,145
2017-02-15T09:32:42.397Z,145
2017-02-15T09:33:22.975Z,145
2017-02-15T09:34:03.565Z,145
2017-02-15T09:34:44.154Z,145
2017-02-15T09:35:24.764Z,145
2017-02-15T09:36:05.379Z,145
2017-02-15T09:36:46.011Z,145
2017-02-15T09:37:26.575Z,145
2017-02-15T09:38:07.153Z,145
2017-02-15T09:38:47.711Z,145
2017-02-15T09:39:28.310Z,145
2017-02-15T09:40:08.936Z,145
2017-02-15T09:40:49.612Z,145
2017-02-15T09:41:30.223Z,145
2017-02-15T09:42:10.953Z,145
2017-02-15T09:42:51.575Z,150
2017-02-15T09:43:32.249Z,150
2017-02-15T09:44:12.935Z,150
2017-02-15T09:44:53.577Z,150
2017-02-15T09:45:34.187Z,150
2017-02-15T09:46:14.838Z,150
2017-02-15T09:46:55.482Z,150
2017-02-15T09:47:36.231Z,150
2017-02-15T09:48:16.899Z,150
2017-02-15T09:48:57.481Z,150
2017-02-15T09:49:38.075Z,150
2017-02-15T09:50:18.775Z,150
2017-02-15T09:50:59.452Z,155